Time;durP1;ratioP1;P1;durP2;ratioP2;P2;SDS_P1;SDS_P2;PMS_P1;PMS_P2;Temp;Humidity;BMP_temperature;BMP_pressure;BME280_temperature;BME280_humidity;BME280_pressure;Samples;Min_cycle;Max_cycle;Signal;HPM_P1;HPM_P2
2024/03/17 00:00:39;;;;;;;7.57;6.77;;;;;;;10.14;64.43;96893.69;4982034;28;20470;-71
2024/03/17 00:03:05;;;;;;;7.60;6.50;;;;;;;10.06;64.70;96898.31;4978268;28;20567;-69
2024/03/17 00:05:31;;;;;;;6.27;5.43;;;;;;;10.19;64.73;96902.25;4982793;28;20551;-69
2024/03/17 00:07:56;;;;;;;5.93;5.40;;;;;;;9.42;66.35;96904.75;4980576;28;20201;-72
2024/03/17 00:10:21;;;;;;;6.07;5.47;;;;;;;9.64;65.99;96904.09;4963527;28;20188;-70
2024/03/17 00:12:47;;;;;;;7.87;5.57;;;;;;;9.73;66.04;96893.28;4976671;28;20578;-70
2024/03/17 00:15:14;;;;;;;8.20;5.63;;;;;;;9.90;65.51;96901.47;4984719;28;20243;-70
2024/03/17 00:17:40;;;;;;;7.13;5.90;;;;;;;10.02;65.32;96896.72;4974951;28;20295;-69
2024/03/17 00:20:14;;;;;;;8.40;5.40;;;;;;;10.24;64.72;96895.06;4983876;28;20443;-70
2024/03/17 00:22:40;;;;;;;6.43;5.00;;;;;;;10.20;64.60;96903.09;4983745;28;20189;-71
2024/03/17 00:25:07;;;;;;;7.20;4.97;;;;;;;10.10;64.46;96899.94;4980204;28;20470;-70
2024/03/17 00:27:34;;;;;;;7.57;5.43;;;;;;;9.96;65.29;96905.63;4978374;28;20993;-70
2024/03/17 00:30:00;;;;;;;6.20;5.47;;;;;;;9.93;66.00;96896.13;4979320;28;20432;-68
2024/03/17 00:32:25;;;;;;;7.27;5.43;;;;;;;10.12;65.91;96901.59;4984341;28;20524;-72
2024/03/17 00:34:50;;;;;;;10.60;6.50;;;;;;;10.21;65.72;96896.97;4984935;28;20969;-71
2024/03/17 00:37:16;;;;;;;9.00;6.90;;;;;;;10.32;65.90;96900.97;4972276;28;20331;-71
2024/03/17 00:39:41;;;;;;;10.20;7.80;;;;;;;10.25;65.67;96901.16;4980692;28;20200;-70
2024/03/17 00:42:06;;;;;;;8.03;5.93;;;;;;;10.19;65.75;96897.00;4984203;28;20185;-69
2024/03/17 00:44:32;;;;;;;11.07;7.43;;;;;;;10.21;66.01;96897.81;4983660;28;20636;-70
2024/03/17 00:46:57;;;;;;;8.40;6.47;;;;;;;10.23;65.24;96889.88;4982258;28;20219;-70
2024/03/17 00:49:23;;;;;;;14.40;7.03;;;;;;;10.17;65.59;96890.94;4984168;28;20185;-69
2024/03/17 00:51:49;;;;;;;7.57;6.87;;;;;;;10.28;65.30;96890.59;4970322;28;20228;-69
2024/03/17 00:54:17;;;;;;;7.80;6.40;;;;;;;10.22;65.16;96891.63;4991798;28;20225;-71
2024/03/17 00:56:43;;;;;;;8.50;5.37;;;;;;;10.25;64.68;96880.19;4985456;28;20797;-69
2024/03/17 00:59:08;;;;;;;7.77;6.47;;;;;;;10.21;64.96;96881.22;4988814;28;20439;-69
2024/03/17 01:01:34;;;;;;;7.03;6.33;;;;;;;10.02;65.17;96873.13;4985846;28;20177;-69
2024/03/17 01:03:59;;;;;;;9.00;6.97;;;;;;;10.05;65.22;96873.88;4988509;28;20180;-70
2024/03/17 01:06:24;;;;;;;9.80;7.57;;;;;;;10.07;65.14;96873.81;4987388;28;20262;-68
2024/03/17 01:08:51;;;;;;;12.97;11.03;;;;;;;10.11;65.15;96867.53;4977107;28;20173;-70
2024/03/17 01:11:18;;;;;;;15.37;12.07;;;;;;;10.03;65.27;96867.81;4987900;28;20187;-68
2024/03/17 01:13:44;;;;;;;13.53;10.97;;;;;;;9.99;65.28;96862.72;4987565;28;20463;-70
2024/03/17 01:16:10;;;;;;;15.47;11.23;;;;;;;10.08;65.13;96851.94;4986463;28;21128;-70
2024/03/17 01:18:37;;;;;;;21.90;14.60;;;;;;;10.11;65.24;96857.94;4987755;28;20185;-69
2024/03/17 01:21:03;;;;;;;13.37;12.00;;;;;;;10.16;64.91;96855.16;4980349;28;20251;-70
2024/03/17 01:23:28;;;;;;;14.33;12.83;;;;;;;10.05;65.19;96847.66;4980275;28;20821;-70
2024/03/17 01:25:54;;;;;;;15.30;12.00;;;;;;;9.96;65.16;96854.06;4984872;28;20466;-70
2024/03/17 01:28:20;;;;;;;14.37;12.87;;;;;;;9.92;65.46;96852.47;4987766;28;20204;-70
2024/03/17 01:30:47;;;;;;;14.40;12.00;;;;;;;9.98;65.33;96859.25;4984198;28;20927;-70
2024/03/17 01:33:12;;;;;;;14.40;11.63;;;;;;;9.85;65.25;96843.09;4982418;28;20313;-71
2024/03/17 01:35:38;;;;;;;11.93;10.60;;;;;;;9.88;65.73;96843.00;4987682;28;21299;-70
2024/03/17 01:38:04;;;;;;;14.07;11.07;;;;;;;9.87;65.71;96846.50;4987929;28;20197;-69
2024/03/17 01:40:29;;;;;;;17.10;12.30;;;;;;;9.88;65.71;96840.38;4979273;28;20789;-70
2024/03/17 01:42:54;;;;;;;14.17;11.33;;;;;;;9.84;65.98;96836.13;4986958;28;20423;-71
2024/03/17 01:45:33;;;;;;;12.10;10.63;;;;;;;9.84;66.07;96836.13;4987172;28;20199;-69
2024/03/17 01:48:01;;;;;;;11.33;10.20;;;;;;;9.85;66.12;96837.84;4987314;28;20207;-71
2024/03/17 01:50:34;;;;;;;12.63;8.37;;;;;;;9.78;66.63;96831.09;4986775;28;20477;-70
2024/03/17 01:53:04;;;;;;;10.40;8.30;;;;;;;9.82;66.07;96830.06;4980822;28;21336;-70
2024/03/17 01:55:31;;;;;;;9.53;8.53;;;;;;;9.80;66.22;96826.66;4987938;28;20855;-70
2024/03/17 01:57:56;;;;;;;8.30;6.60;;;;;;;9.82;65.90;96822.22;4969055;28;20457;-70
2024/03/17 02:00:22;;;;;;;9.20;7.57;;;;;;;9.70;66.08;96822.63;4983931;28;20932;-70
2024/03/17 02:02:48;;;;;;;7.50;6.67;;;;;;;9.80;66.24;96818.78;4987278;28;20204;-70
2024/03/17 02:05:14;;;;;;;10.03;7.30;;;;;;;9.81;66.24;96814.41;4987210;28;20476;-69
2024/03/17 02:07:40;;;;;;;8.73;7.70;;;;;;;9.90;66.02;96817.59;4987412;28;20205;-69
2024/03/17 02:10:08;;;;;;;8.70;6.80;;;;;;;10.14;64.79;96822.88;4987073;28;20254;-70
2024/03/17 02:12:34;;;;;;;10.73;6.50;;;;;;;10.06;64.65;96814.41;4985955;28;20463;-70
2024/03/17 02:15:00;;;;;;;9.70;7.83;;;;;;;9.99;64.59;96812.91;4988819;28;20486;-69
2024/03/17 02:17:27;;;;;;;9.83;7.77;;;;;;;9.94;64.76;96819.19;4982533;28;20455;-72
2024/03/17 02:19:52;;;;;;;14.67;9.53;;;;;;;9.93;65.09;96809.59;4986125;28;20187;-71
2024/03/17 02:22:18;;;;;;;12.50;9.77;;;;;;;9.93;64.95;96822.72;4994816;28;20939;-70
2024/03/17 02:24:44;;;;;;;12.47;11.17;;;;;;;9.87;65.27;96809.81;4990453;28;20273;-70
2024/03/17 02:27:09;;;;;;;11.20;8.60;;;;;;;9.84;65.56;96803.81;4993391;28;20208;-71
2024/03/17 02:29:36;;;;;;;9.90;7.83;;;;;;;9.89;65.14;96810.59;4983387;28;20429;-71
2024/03/17 02:32:06;;;;;;;9.20;7.70;;;;;;;9.69;65.89;96808.69;4987035;28;20216;-70
2024/03/17 02:34:33;;;;;;;9.97;6.97;;;;;;;9.80;65.56;96803.06;4987171;28;20529;-71
2024/03/17 02:36:58;;;;;;;8.00;6.73;;;;;;;9.80;65.09;96804.81;4986710;28;20566;-70
2024/03/17 02:39:36;;;;;;;8.43;7.53;;;;;;;9.85;64.99;96809.03;4986595;28;20626;-71
2024/03/17 02:42:01;;;;;;;9.50;7.10;;;;;;;9.73;65.06;96807.69;4985970;28;20181;-71
2024/03/17 02:44:28;;;;;;;10.73;6.63;;;;;;;9.86;64.66;96805.47;4985294;28;20553;-71
2024/03/17 02:46:53;;;;;;;10.70;7.60;;;;;;;9.85;65.34;96800.28;4985528;28;20691;-69
2024/03/17 02:49:18;;;;;;;9.80;7.90;;;;;;;9.85;65.08;96802.91;4981153;28;20468;-71
2024/03/17 02:51:44;;;;;;;9.13;7.00;;;;;;;9.83;65.19;96796.88;4967198;28;20180;-68
2024/03/17 02:54:09;;;;;;;8.30;6.40;;;;;;;9.59;65.51;96796.81;4978788;28;20269;-69
2024/03/17 02:56:35;;;;;;;9.30;6.20;;;;;;;9.67;65.41;96796.53;4980156;28;20303;-70
2024/03/17 02:59:00;;;;;;;7.47;6.23;;;;;;;9.72;65.27;96792.00;4985802;28;20211;-71
2024/03/17 03:01:26;;;;;;;7.90;6.30;;;;;;;9.65;65.04;96788.72;4985079;28;20177;-70
2024/03/17 03:03:51;;;;;;;7.40;6.17;;;;;;;9.70;65.06;96784.19;4982242;28;20541;-71
2024/03/17 03:06:19;;;;;;;8.17;6.50;;;;;;;9.53;65.29;96781.28;4983908;28;20521;-69
2024/03/17 03:08:48;;;;;;;7.73;6.63;;;;;;;9.69;65.42;96781.63;4980123;28;20177;-70
2024/03/17 03:11:14;;;;;;;9.60;8.07;;;;;;;9.17;66.73;96775.50;4985530;28;20435;-71
2024/03/17 03:13:41;;;;;;;10.97;7.37;;;;;;;8.92;68.95;96786.72;4977500;28;20558;-69
2024/03/17 03:16:08;;;;;;;10.60;8.67;;;;;;;8.94;69.22;96778.84;4982530;28;20432;-69
2024/03/17 03:18:34;;;;;;;12.47;7.30;;;;;;;9.26;67.69;96767.31;4985951;28;20442;-70
2024/03/17 03:21:00;;;;;;;10.83;7.67;;;;;;;8.86;69.35;96764.25;4983588;28;20436;-71
2024/03/17 03:23:26;;;;;;;11.27;7.97;;;;;;;8.93;69.31;96761.41;4984734;28;20427;-70
2024/03/17 03:25:56;;;;;;;9.20;7.13;;;;;;;8.98;68.62;96767.38;4979195;28;20169;-71
2024/03/17 03:28:22;;;;;;;7.60;6.90;;;;;;;9.07;68.50;96781.03;4985060;28;20460;-70
2024/03/17 03:30:48;;;;;;;8.63;7.67;;;;;;;9.44;67.68;96787.66;4984133;28;21152;-71
2024/03/17 03:33:13;;;;;;;10.00;7.03;;;;;;;9.41;67.60;96774.69;4984345;28;20460;-71
2024/03/17 03:35:39;;;;;;;7.70;6.50;;;;;;;9.48;67.11;96777.97;4983837;28;20190;-71
2024/03/17 03:38:05;;;;;;;7.83;5.57;;;;;;;9.33;66.39;96789.81;4978959;28;20280;-71
2024/03/17 03:40:31;;;;;;;6.10;5.50;;;;;;;9.23;67.00;96778.75;4973612;28;20536;-71
2024/03/17 03:42:57;;;;;;;6.13;5.53;;;;;;;9.31;66.34;96781.16;4973094;28;20169;-68
2024/03/17 03:45:23;;;;;;;9.97;6.30;;;;;;;9.37;66.60;96780.06;4983340;28;20479;-70
2024/03/17 03:47:50;;;;;;;7.97;5.80;;;;;;;9.43;66.44;96788.59;4979969;28;20454;-69
2024/03/17 03:50:21;;;;;;;7.10;5.90;;;;;;;9.36;66.46;96781.00;4982384;28;20545;-71
2024/03/17 03:52:46;;;;;;;6.60;5.57;;;;;;;9.41;66.07;96769.44;4976280;28;20468;-70
2024/03/17 03:55:15;;;;;;;7.80;5.30;;;;;;;9.41;66.08;96774.69;4984661;28;20482;-71
2024/03/17 03:57:41;;;;;;;7.43;5.50;;;;;;;9.37;66.78;96770.44;4978708;28;20193;-68
2024/03/17 04:00:12;;;;;;;7.20;5.10;;;;;;;9.37;66.64;96765.22;4980386;28;20803;-71
2024/03/17 04:02:38;;;;;;;5.77;4.60;;;;;;;9.46;66.31;96771.91;4984152;28;20436;-71
2024/03/17 04:05:04;;;;;;;7.00;6.13;;;;;;;9.18;68.00;96779.81;4983428;28;20436;-70
2024/03/17 04:07:30;;;;;;;6.17;5.57;;;;;;;8.65;69.77;96771.00;4976018;28;20455;-72
2024/03/17 04:09:55;;;;;;;6.80;6.10;;;;;;;8.74;69.98;96771.59;4971126;28;20177;-71
2024/03/17 04:12:20;;;;;;;6.60;5.97;;;;;;;9.08;68.17;96774.03;4977230;28;20209;-72
2024/03/17 04:14:46;;;;;;;5.80;5.30;;;;;;;9.16;68.15;96782.47;4984684;28;20220;-70
2024/03/17 04:17:13;;;;;;;7.20;5.73;;;;;;;9.31;67.66;96781.16;4978044;28;20994;-69
2024/03/17 04:19:38;;;;;;;7.97;5.73;;;;;;;9.19;68.19;96774.53;4981388;28;20177;-69
2024/03/17 04:22:04;;;;;;;6.37;5.70;;;;;;;9.15;67.67;96775.53;4972332;28;21083;-70
2024/03/17 04:24:29;;;;;;;9.93;6.60;;;;;;;9.06;68.09;96787.16;4971581;28;20264;-69
2024/03/17 04:26:55;;;;;;;7.47;6.50;;;;;;;9.19;67.99;96778.91;4976955;28;20878;-69
2024/03/17 04:29:20;;;;;;;6.80;6.10;;;;;;;9.12;68.78;96786.13;4979728;28;20300;-71
2024/03/17 04:31:48;;;;;;;9.60;6.90;;;;;;;9.09;69.54;96780.97;4982924;28;20195;-72
2024/03/17 04:34:14;;;;;;;7.70;6.13;;;;;;;9.17;69.43;96778.97;4978721;28;20587;-68
2024/03/17 04:36:40;;;;;;;8.87;7.97;;;;;;;9.10;69.91;96786.16;4972248;28;20480;-71
2024/03/17 04:39:08;;;;;;;8.50;6.60;;;;;;;9.23;69.29;96783.13;4978035;28;20518;-71
2024/03/17 04:41:33;;;;;;;8.23;6.50;;;;;;;9.06;70.59;96788.91;4973350;28;20199;-70
2024/03/17 04:43:59;;;;;;;9.17;8.20;;;;;;;9.03;70.36;96782.03;4982463;28;20428;-71
2024/03/17 04:46:26;;;;;;;14.10;9.40;;;;;;;9.08;70.68;96782.72;4971909;28;20197;-70
2024/03/17 04:48:51;;;;;;;10.53;7.73;;;;;;;8.97;70.84;96786.59;4970454;28;20176;-69
2024/03/17 04:51:17;;;;;;;11.10;8.53;;;;;;;8.87;71.00;96781.63;4980950;28;20486;-70
2024/03/17 04:53:43;;;;;;;10.13;8.47;;;;;;;8.55;72.55;96774.78;4994548;28;20210;-68
2024/03/17 04:56:08;;;;;;;10.30;9.00;;;;;;;8.59;72.03;96779.00;4990432;28;20181;-70
2024/03/17 04:58:34;;;;;;;10.13;8.73;;;;;;;8.48;72.62;96779.34;4984690;28;20181;-70
2024/03/17 05:01:07;;;;;;;14.73;8.87;;;;;;;8.35;73.96;96792.78;4974080;28;20244;-72
2024/03/17 05:03:34;;;;;;;10.70;8.70;;;;;;;8.55;72.49;96795.72;4984179;28;20424;-69
2024/03/17 05:06:01;;;;;;;10.57;8.67;;;;;;;8.36;73.87;96789.25;4982374;28;20432;-69
2024/03/17 05:08:27;;;;;;;10.57;9.10;;;;;;;8.50;72.54;96792.34;4981332;28;20466;-70
2024/03/17 05:11:07;;;;;;;10.27;8.60;;;;;;;8.71;71.61;96792.63;4978378;28;20590;-70
2024/03/17 05:13:33;;;;;;;11.30;8.90;;;;;;;8.90;70.22;96794.66;4977813;28;20208;-71
2024/03/17 05:16:00;;;;;;;12.03;9.10;;;;;;;8.48;72.52;96796.81;4986494;28;20432;-70
2024/03/17 05:18:26;;;;;;;11.17;8.10;;;;;;;8.54;72.24;96791.38;4985067;28;21074;-71
2024/03/17 05:21:04;;;;;;;8.87;7.97;;;;;;;8.42;72.16;96794.34;4978824;28;20539;-71
2024/03/17 05:23:33;;;;;;;13.83;8.87;;;;;;;8.55;72.19;96782.63;4981141;28;20182;-70
2024/03/17 05:25:59;;;;;;;11.70;9.07;;;;;;;8.40;72.09;96783.94;4984006;28;20451;-70
2024/03/17 05:28:26;;;;;;;10.73;9.00;;;;;;;8.37;72.38;96786.59;4988754;28;20432;-70
2024/03/17 05:30:52;;;;;;;11.40;8.83;;;;;;;8.35;73.00;96782.31;4980809;28;20432;-70
2024/03/17 05:33:19;;;;;;;10.43;9.33;;;;;;;8.33;71.68;96781.50;4987716;28;21041;-69
2024/03/17 05:35:52;;;;;;;9.63;7.63;;;;;;;7.80;73.85;96785.56;4981935;28;20188;-71
2024/03/17 05:38:19;;;;;;;9.37;7.50;;;;;;;8.26;72.64;96789.50;4986844;28;20459;-69
2024/03/17 05:41:18;;;;;;;16.73;8.00;;;;;;;8.45;71.94;96787.25;4980685;28;20469;-71
2024/03/17 05:43:44;;;;;;;11.70;8.63;;;;;;;8.48;70.48;96787.19;4976273;28;20982;-70
2024/03/17 05:46:11;;;;;;;9.50;7.67;;;;;;;8.38;71.08;96790.91;4993499;28;20439;-69
2024/03/17 05:48:38;;;;;;;8.87;7.97;;;;;;;8.85;69.42;96788.69;4993571;28;20193;-69
2024/03/17 05:51:08;;;;;;;10.17;7.97;;;;;;;8.93;69.33;96795.44;4988655;28;21421;-69
2024/03/17 05:53:34;;;;;;;11.27;8.33;;;;;;;8.90;68.82;96799.00;4985262;28;20474;-68
2024/03/17 05:56:03;;;;;;;15.93;8.73;;;;;;;8.89;68.69;96797.31;4985205;28;20527;-69
2024/03/17 05:58:29;;;;;;;9.20;7.93;;;;;;;8.83;69.25;96797.47;4986519;28;20559;-68
2024/03/17 06:00:54;;;;;;;14.53;8.80;;;;;;;8.80;69.36;96793.19;4985700;28;20531;-69
2024/03/17 06:03:21;;;;;;;9.87;8.40;;;;;;;8.78;69.41;96794.16;4987458;28;20185;-69
2024/03/17 06:05:47;;;;;;;9.73;7.50;;;;;;;8.83;69.41;96798.34;4987273;28;20239;-69
2024/03/17 06:08:13;;;;;;;12.50;8.30;;;;;;;8.70;69.99;96789.16;4980729;28;20460;-69
2024/03/17 06:10:44;;;;;;;12.50;9.00;;;;;;;8.94;69.51;96789.31;4984681;28;20478;-70
2024/03/17 06:13:13;;;;;;;12.70;8.20;;;;;;;8.74;69.83;96793.41;4983042;28;20544;-70
2024/03/17 06:15:41;;;;;;;8.90;7.60;;;;;;;8.82;69.81;96791.41;4987270;28;20801;-69
2024/03/17 06:18:12;;;;;;;11.33;8.23;;;;;;;8.60;70.30;96788.59;4982284;28;20467;-70
2024/03/17 06:20:42;;;;;;;10.87;7.80;;;;;;;8.20;71.67;96791.47;4984572;28;20440;-69
2024/03/17 06:23:08;;;;;;;13.40;8.40;;;;;;;8.53;71.09;96789.66;4980103;28;20436;-70
2024/03/17 06:25:44;;;;;;;11.70;8.80;;;;;;;8.60;71.41;96792.97;4985873;28;20513;-69
2024/03/17 06:28:13;;;;;;;9.30;8.40;;;;;;;8.89;69.30;96797.31;4982880;28;20460;-69
2024/03/17 06:30:48;;;;;;;13.33;8.50;;;;;;;8.85;69.76;96799.16;4985689;28;20424;-70
2024/03/17 06:33:14;;;;;;;10.47;9.30;;;;;;;9.03;69.11;96795.13;4986576;28;20467;-74
2024/03/17 06:35:40;;;;;;;9.87;8.00;;;;;;;9.14;69.00;96789.53;4986741;28;20462;-70
2024/03/17 06:38:09;;;;;;;12.60;9.17;;;;;;;9.19;68.73;96787.63;4981232;28;20446;-70
2024/03/17 06:40:38;;;;;;;10.20;9.07;;;;;;;9.20;68.57;96788.50;4985033;28;20192;-69
2024/03/17 06:43:04;;;;;;;11.77;9.80;;;;;;;8.93;68.57;96791.09;4986882;28;20464;-68
2024/03/17 06:45:29;;;;;;;12.93;11.27;;;;;;;8.91;69.15;96785.03;4987718;28;20515;-69
2024/03/17 06:47:55;;;;;;;14.40;10.00;;;;;;;9.01;68.87;96790.84;4987117;28;21141;-69
2024/03/17 06:50:21;;;;;;;21.90;10.67;;;;;;;8.68;69.90;96777.88;4985537;28;20189;-69
2024/03/17 06:52:46;;;;;;;12.37;8.90;;;;;;;9.00;69.24;96784.75;4981771;28;20220;-69
2024/03/17 06:55:12;;;;;;;10.27;7.10;;;;;;;12.19;79.86;96771.00;4982127;28;20445;-69
2024/03/17 06:57:38;;;;;;;24.47;10.77;;;;;;;11.81;60.56;96770.84;4984387;28;20292;-69
2024/03/17 07:00:05;;;;;;;15.60;9.60;;;;;;;10.73;63.17;96775.25;4960762;28;20185;-70
2024/03/17 07:02:34;;;;;;;9.87;8.77;;;;;;;10.77;63.48;96775.97;4985913;28;20181;-70
2024/03/17 07:04:59;;;;;;;11.00;9.57;;;;;;;10.11;65.21;96788.88;4965700;28;20451;-70
2024/03/17 07:07:28;;;;;;;14.10;9.50;;;;;;;9.98;65.57;96785.00;4981049;28;20463;-69
2024/03/17 07:09:53;;;;;;;18.83;9.83;;;;;;;9.46;68.24;96790.25;4979328;28;20181;-69
2024/03/17 07:12:19;;;;;;;11.00;9.07;;;;;;;9.29;68.89;96783.81;4982921;28;20474;-70
2024/03/17 07:14:45;;;;;;;13.60;9.70;;;;;;;9.01;69.99;96789.06;4986261;28;20173;-69
2024/03/17 07:17:10;;;;;;;10.63;8.90;;;;;;;9.22;69.34;96784.06;4982841;28;20482;-69
2024/03/17 07:19:36;;;;;;;12.57;9.40;;;;;;;9.37;68.60;96787.94;4985261;28;20208;-68
2024/03/17 07:22:01;;;;;;;11.00;9.33;;;;;;;9.33;69.07;96787.19;4984684;28;20541;-68
2024/03/17 07:24:27;;;;;;;11.43;9.27;;;;;;;9.42;69.31;96784.25;4979116;28;20184;-69
2024/03/17 07:26:53;;;;;;;11.00;9.60;;;;;;;9.50;68.79;96782.25;4979957;28;20200;-70
2024/03/17 07:29:19;;;;;;;11.50;10.40;;;;;;;9.62;68.54;96783.59;4983347;28;20189;-69
2024/03/17 07:31:44;;;;;;;13.63;9.63;;;;;;;9.93;67.38;96796.50;4977677;28;20607;-70
2024/03/17 07:34:10;;;;;;;13.13;10.00;;;;;;;10.43;65.67;96789.53;4983989;28;20467;-69
2024/03/17 07:36:35;;;;;;;10.40;9.30;;;;;;;10.23;65.69;96788.47;4969923;28;20663;-69
2024/03/17 07:39:02;;;;;;;10.93;8.77;;;;;;;10.23;65.78;96788.47;4979921;28;20859;-69
2024/03/17 07:41:27;;;;;;;11.57;8.37;;;;;;;10.47;65.03;96788.50;4978636;28;20280;-70
2024/03/17 07:43:53;;;;;;;10.80;8.10;;;;;;;10.59;64.21;96785.41;4987983;28;20538;-68
2024/03/17 07:46:18;;;;;;;12.73;8.63;;;;;;;10.67;64.87;96783.34;4990029;28;20243;-71
2024/03/17 07:48:45;;;;;;;9.10;8.10;;;;;;;11.27;62.74;96782.75;4987918;28;20201;-71
2024/03/17 07:51:16;;;;;;;8.43;7.50;;;;;;;10.84;64.49;96787.09;5001561;28;20957;-70
2024/03/17 07:53:44;;;;;;;8.67;7.67;;;;;;;10.60;64.80;96779.22;5005612;28;20501;-69
2024/03/17 07:56:11;;;;;;;11.00;8.00;;;;;;;10.49;65.83;96784.06;5005825;28;20451;-69
2024/03/17 07:58:38;;;;;;;12.90;10.77;;;;;;;10.47;65.58;96780.63;5006066;28;20415;-69
2024/03/17 08:01:05;;;;;;;11.50;10.17;;;;;;;10.45;66.17;96777.19;5000605;28;20420;-69
2024/03/17 08:03:32;;;;;;;11.37;9.87;;;;;;;10.90;64.62;96773.72;4986171;28;20416;-69
2024/03/17 08:06:00;;;;;;;10.27;9.27;;;;;;;10.61;65.73;96773.09;4985262;28;20428;-70
2024/03/17 08:08:26;;;;;;;10.90;7.33;;;;;;;10.52;66.54;96779.53;4991725;28;20467;-68
2024/03/17 08:10:51;;;;;;;12.67;8.30;;;;;;;11.78;63.72;96766.59;4993031;28;20422;-70
2024/03/17 08:13:18;;;;;;;8.47;7.57;;;;;;;12.15;60.96;96772.94;5002863;28;20609;-67
2024/03/17 08:15:45;;;;;;;8.47;7.30;;;;;;;11.99;61.26;96769.25;4973394;28;20177;-69
2024/03/17 08:18:11;;;;;;;6.93;6.30;;;;;;;11.86;62.17;96766.28;4984518;28;20443;-69
2024/03/17 08:20:40;;;;;;;8.57;7.67;;;;;;;11.28;64.68;96763.47;4999521;28;20420;-69
2024/03/17 08:23:06;;;;;;;10.90;7.10;;;;;;;11.49;64.50;96762.56;4993767;28;20188;-69
2024/03/17 08:25:33;;;;;;;10.00;7.43;;;;;;;11.26;64.94;96763.50;4988627;28;20850;-70
2024/03/17 08:27:58;;;;;;;10.40;7.80;;;;;;;11.97;62.88;96755.31;5001906;28;20530;-69
2024/03/17 08:30:24;;;;;;;11.00;8.10;;;;;;;12.68;61.57;96753.84;5003574;28;20530;-70
2024/03/17 08:32:49;;;;;;;12.60;8.20;;;;;;;13.85;57.29;96749.97;4991211;28;20206;-70
2024/03/17 08:35:15;;;;;;;9.37;8.00;;;;;;;13.17;58.04;96748.00;5000302;28;20172;-68
2024/03/17 08:37:40;;;;;;;12.77;8.37;;;;;;;13.07;59.53;96744.13;5000737;28;20261;-69
2024/03/17 08:40:07;;;;;;;9.40;8.40;;;;;;;13.88;57.36;96741.88;5004705;28;20218;-70
2024/03/17 08:42:32;;;;;;;7.73;7.03;;;;;;;14.03;56.28;96746.38;4999043;28;20169;-70
2024/03/17 08:44:58;;;;;;;10.30;8.07;;;;;;;13.16;58.14;96746.31;4992291;28;20473;-68
2024/03/17 08:47:23;;;;;;;8.60;7.67;;;;;;;12.58;59.79;96742.03;4998943;28;20203;-69
2024/03/17 08:49:52;;;;;;;8.70;7.53;;;;;;;13.53;58.39;96741.88;4992856;28;20195;-69
2024/03/17 08:52:17;;;;;;;12.83;7.50;;;;;;;14.04;56.81;96737.50;5003702;28;20213;-69
2024/03/17 08:54:46;;;;;;;8.33;7.53;;;;;;;13.91;56.37;96737.31;5008261;28;20516;-70
2024/03/17 08:57:12;;;;;;;7.70;6.53;;;;;;;13.90;56.33;96737.38;4999370;28;20691;-69
2024/03/17 08:59:38;;;;;;;8.80;7.90;;;;;;;14.59;55.14;96731.94;5015297;28;20414;-70
2024/03/17 09:02:03;;;;;;;7.00;6.30;;;;;;;14.96;53.50;96724.63;4997243;28;20250;-69
2024/03/17 09:04:29;;;;;;;7.90;7.17;;;;;;;14.85;53.73;96729.66;4997347;28;20204;-69
2024/03/17 09:06:56;;;;;;;10.33;7.47;;;;;;;14.30;55.10;96727.38;4997011;28;20192;-69
2024/03/17 09:09:22;;;;;;;6.97;6.27;;;;;;;14.27;54.98;96735.44;4994520;28;20908;-69
2024/03/17 09:11:47;;;;;;;7.97;7.17;;;;;;;14.22;55.20;96722.50;4989707;28;20778;-68
2024/03/17 09:14:13;;;;;;;7.43;6.70;;;;;;;14.32;54.77;96720.22;4990875;28;20494;-70
2024/03/17 09:16:38;;;;;;;7.80;7.00;;;;;;;13.90;55.90;96726.81;4996618;28;20265;-70
2024/03/17 09:19:04;;;;;;;8.40;6.53;;;;;;;13.95;55.98;96724.81;4999131;28;20184;-69
2024/03/17 09:21:29;;;;;;;8.20;7.17;;;;;;;13.39;57.59;96724.13;5001717;28;20185;-69
2024/03/17 09:23:54;;;;;;;8.03;7.23;;;;;;;14.04;56.33;96719.03;4976366;28;20173;-70
2024/03/17 09:26:20;;;;;;;7.40;6.37;;;;;;;13.73;56.32;96704.81;5001515;28;20184;-70
2024/03/17 09:28:45;;;;;;;6.47;5.83;;;;;;;13.39;57.95;96710.09;5000730;28;20607;-68
2024/03/17 09:31:11;;;;;;;7.27;6.37;;;;;;;14.45;54.49;96702.75;4990878;28;20657;-68
2024/03/17 09:33:38;;;;;;;7.07;6.37;;;;;;;13.81;56.03;96711.47;4985673;28;20205;-67
2024/03/17 09:36:08;;;;;;;8.13;6.83;;;;;;;14.19;55.48;96704.19;4969781;28;20522;-66
2024/03/17 09:38:34;;;;;;;7.40;6.63;;;;;;;13.90;56.67;96705.72;4977104;28;20440;-69
2024/03/17 09:41:00;;;;;;;7.70;7.00;;;;;;;13.94;56.55;96704.63;4978039;28;22435;-67
2024/03/17 09:43:28;;;;;;;7.53;6.10;;;;;;;14.51;55.40;96701.59;4983779;28;20503;-69
2024/03/17 09:46:00;;;;;;;7.93;7.17;;;;;;;15.23;53.15;96702.84;4985657;28;20439;-66
2024/03/17 09:48:28;;;;;;;9.67;7.57;;;;;;;15.88;56.73;96694.66;4981999;28;20456;-67
2024/03/17 09:50:55;;;;;;;12.00;7.17;;;;;;;14.94;54.51;96694.78;4985075;28;20440;-68
2024/03/17 09:53:25;;;;;;;6.30;5.70;;;;;;;14.67;54.96;96696.34;4981993;28;20502;-67
2024/03/17 09:55:53;;;;;;;5.97;5.10;;;;;;;13.88;56.91;96702.31;4984357;28;20439;-68
2024/03/17 09:58:19;;;;;;;8.83;6.50;;;;;;;13.87;56.46;96700.63;4991450;28;20436;-66
2024/03/17 10:00:44;;;;;;;9.10;5.70;;;;;;;14.69;54.75;96694.47;4992566;28;20479;-67
2024/03/17 10:03:10;;;;;;;9.37;5.30;;;;;;;15.12;53.13;96694.69;4991843;28;20400;-68
2024/03/17 10:05:35;;;;;;;6.67;5.80;;;;;;;15.41;51.99;96688.56;4992570;28;20173;-69
2024/03/17 10:08:02;;;;;;;6.50;5.47;;;;;;;15.32;52.60;96696.19;4991851;28;20200;-67
2024/03/17 10:10:27;;;;;;;6.30;5.70;;;;;;;15.30;52.67;96690.13;4991874;28;20207;-68
2024/03/17 10:12:53;;;;;;;6.00;5.40;;;;;;;15.16;52.55;96688.28;4991636;28;20550;-67
2024/03/17 10:15:20;;;;;;;6.97;5.27;;;;;;;15.01;53.02;96703.22;4992017;28;20226;-69
2024/03/17 10:17:46;;;;;;;9.30;4.83;;;;;;;15.17;52.59;96696.13;4991357;28;20205;-67
2024/03/17 10:20:23;;;;;;;6.40;5.80;;;;;;;15.00;52.35;96691.81;4991607;28;20474;-70
2024/03/17 10:23:09;;;;;;;7.53;5.30;;;;;;;14.67;53.85;96689.28;4991383;28;20263;-69
2024/03/17 10:25:39;;;;;;;9.80;5.63;;;;;;;14.92;53.15;96682.59;4990959;28;20879;-68
2024/03/17 10:28:13;;;;;;;14.43;6.87;;;;;;;15.07;53.14;96683.53;4990436;28;20480;-69
2024/03/17 10:30:39;;;;;;;8.67;4.93;;;;;;;14.97;53.03;96672.63;4991922;28;20446;-68
2024/03/17 10:33:08;;;;;;;5.83;4.73;;;;;;;14.92;53.00;96675.53;4990882;28;20467;-69
2024/03/17 10:35:38;;;;;;;9.97;5.93;;;;;;;14.94;53.00;96676.28;4991310;28;20795;-67
2024/03/17 10:38:05;;;;;;;7.07;6.27;;;;;;;14.75;53.48;96678.28;4990797;28;20438;-66
2024/03/17 10:40:32;;;;;;;5.73;5.00;;;;;;;14.68;53.70;96676.91;4990896;28;20424;-67
2024/03/17 10:43:00;;;;;;;6.93;5.00;;;;;;;14.80;53.69;96687.63;4990448;28;20419;-68
2024/03/17 10:45:30;;;;;;;6.13;4.77;;;;;;;15.11;52.47;96685.91;4990744;28;20427;-68
2024/03/17 10:48:00;;;;;;;4.70;3.87;;;;;;;14.80;52.39;96676.22;4990143;28;20446;-68
2024/03/17 10:50:29;;;;;;;19.43;6.73;;;;;;;14.97;52.86;96678.75;4991323;28;21051;-68
2024/03/17 10:52:58;;;;;;;12.17;5.43;;;;;;;14.82;53.04;96677.00;4990301;28;20463;-70
2024/03/17 10:55:25;;;;;;;8.13;5.50;;;;;;;15.04;51.96;96684.53;4990856;28;20515;-67
2024/03/17 10:57:53;;;;;;;7.10;4.17;;;;;;;15.28;51.49;96679.63;4994212;28;20431;-68
2024/03/17 11:00:22;;;;;;;5.60;3.90;;;;;;;15.39;50.28;96679.88;4994644;28;20407;-67
2024/03/17 11:02:50;;;;;;;4.80;4.00;;;;;;;15.33;50.81;96668.78;4991127;28;20404;-67
2024/03/17 11:05:22;;;;;;;7.67;4.37;;;;;;;15.78;50.01;96674.97;4993003;28;20480;-67
2024/03/17 11:07:49;;;;;;;4.80;4.13;;;;;;;15.78;49.63;96674.97;4990607;28;20431;-67
2024/03/17 11:10:16;;;;;;;6.43;4.37;;;;;;;15.76;49.77;96671.59;4990786;28;20808;-66
2024/03/17 11:12:52;;;;;;;3.77;3.40;;;;;;;15.25;51.00;96670.09;4990153;28;20466;-68
2024/03/17 11:15:24;;;;;;;4.37;3.53;;;;;;;15.54;50.48;96669.31;4991028;28;20427;-68
2024/03/17 11:17:53;;;;;;;10.37;4.60;;;;;;;15.65;49.70;96659.81;4989874;28;20435;-67
2024/03/17 11:20:28;;;;;;;8.87;3.60;;;;;;;15.64;48.61;96665.19;4990556;28;20974;-69
2024/03/17 11:22:58;;;;;;;6.30;5.37;;;;;;;15.63;49.91;96664.31;4989552;28;20427;-68
2024/03/17 11:25:26;;;;;;;5.93;4.07;;;;;;;15.59;50.13;96669.88;4990166;28;20756;-66
2024/03/17 11:28:02;;;;;;;4.20;3.50;;;;;;;15.67;49.58;96670.31;4989757;28;20547;-68
2024/03/17 11:30:40;;;;;;;5.73;3.80;;;;;;;15.53;50.15;96665.81;4982498;28;20451;-67
2024/03/17 11:33:44;;;;;;;4.63;3.13;;;;;;;15.69;48.50;96670.22;4983145;28;21476;-67